Bois des Dames Bruay la Buissière (62) - B

Date : 12/05/2013
Distance : 3,900 km

Place Nom Licence Catégorie Club Temps min/km CN à J-60 Points Différence Nouveau CN
1 LOTERIE Laurine 7045 D20 5907NO 0:34:22 8'48 5699 6407 +708 5749
2 DE LONGUEVILLE Béatrice 24272 D40 5907NO 0:36:36 9'23 5622 6016 +394 5797
3 FONTAINE Helise 22962 D20 5907NO 0:42:46 10'57 4436 5148 +712 4436
4 MERCIER Agnès 23079 D21 5907NO 0:43:56 11'15 4950 5012 +62 4985
5 DECARPIGNY Gwladys 6995 D21 5907NO 0:50:04 12'50 4398 3552
6 ROUX Catherine 13270 D40 6205NO 0:50:12 12'52 4253 4386 +133 4404
7 SANCHEZ Marlene 15247 D35 6208NO 0:51:47 13'16 4365 4252 -113 4325
8 KIRILOV Aurélie 20629 D21 5906NO 0:52:38 13'29 4804 4183 -621 4908
9 FARDEL Camille 9426 D21 5907NO 0:56:49 14'34 3874 3875 +1 3888
10 BOUTIN Dominique 13838 H45 6205NO 0:58:05 14'53 4482 3791 -691 4523
11 LANQUETIN Céline 18611 D21 5907NO 0:58:19 14'57 3453 3776 +323 3599
12 ROBYN Laurence 10766 D45 5906NO 0:59:59 15'22 4232 3671 -561 4197
13 DESSAILLY Aurélie 26339 D35 5909NO 1:02:40 16'04 2519 3514 +995 3335
14 DEPERSIN Isabelle 17899 D40 5907NO 1:05:10 16'42 0 3379 2200
15 DURIEZ Caroline 24170 D21 6208NO 1:05:55 16'54 3646 3340 -306 3685
16 VANOVERBERGHE Nathalie 22237 D45 6203NO 1:11:54 18'26 3043 3062 +19 3153
17 BOULANGER Isabelle 10639 D55 5907NO 1:14:36 19'07 3276 2951 -325 3294
18 FACHAUX Angélique 17577 D21 5907NO 1:16:03 19'30 2895 2689
19 BONIFACE Emmanuelle 20512 D21 5907NO 1:16:33 19'37 1884 2876 +992 3620
20 COMPIGNIE Hélène 25975 D21 6205NO 1:16:36 19'38 3318 2874 -444 3261
21 LESUEUR Charlotte 25413 D21 5906NO 1:22:05 21'02 3102 2682 -420 3273
22 ROLIN Charlotte 23947 D35 6208NO 1:25:55 22'01 3566 2563 -1003 3642
23 PRUVOST Virginie 25881 D40 6208NO 1:33:44 24'02 2458 2349 -109 2741
24 POULAIN Odile 1948 D50 5909NO 1:35:49 24'34 2841 2298 -543 2642
25 LEROY Odile 7216 D50 5907NO 1:36:51 24'50 3225 2273 -952 3337
26 LUDEWIG-JAMES Carol 15894 D70 5907NO 2:20:46 36'05 1895 1564 -331 2039
27 CHAPUS Maryline 23769 D40 6205NO 2:46:52 42'47 0 1320 1294